sensor_id;sensor_type;location;lat;lon;timestamp;temperature;humidity
23069;DHT22;11702;50.856;4.348;2022-11-20T00:03:35;3.20;99.90
23069;DHT22;11702;50.856;4.348;2022-11-20T00:06:01;3.30;99.90
23069;DHT22;11702;50.856;4.348;2022-11-20T00:08:27;3.20;99.90
23069;DHT22;11702;50.856;4.348;2022-11-20T00:10:53;3.20;99.90
23069;DHT22;11702;50.856;4.348;2022-11-20T00:13:18;3.30;99.90
23069;DHT22;11702;50.856;4.348;2022-11-20T00:15:44;3.60;99.90
23069;DHT22;11702;50.856;4.348;2022-11-20T00:18:09;3.60;99.90
23069;DHT22;11702;50.856;4.348;2022-11-20T00:20:35;3.50;99.90
23069;DHT22;11702;50.856;4.348;2022-11-20T00:23:00;3.40;99.90
23069;DHT22;11702;50.856;4.348;2022-11-20T00:25:26;3.30;99.90
23069;DHT22;11702;50.856;4.348;2022-11-20T00:27:52;3.40;99.90
23069;DHT22;11702;50.856;4.348;2022-11-20T00:30:17;3.40;99.90
23069;DHT22;11702;50.856;4.348;2022-11-20T00:32:43;3.30;99.90
23069;DHT22;11702;50.856;4.348;2022-11-20T00:35:09;3.30;99.90
23069;DHT22;11702;50.856;4.348;2022-11-20T00:37:34;3.30;99.90
23069;DHT22;11702;50.856;4.348;2022-11-20T00:40:00;3.20;99.90
23069;DHT22;11702;50.856;4.348;2022-11-20T00:42:25;3.10;99.90
23069;DHT22;11702;50.856;4.348;2022-11-20T00:44:51;3.10;99.90
23069;DHT22;11702;50.856;4.348;2022-11-20T00:47:17;3.10;99.90
23069;DHT22;11702;50.856;4.348;2022-11-20T00:49:42;3.20;99.90
23069;DHT22;11702;50.856;4.348;2022-11-20T00:52:08;3.40;99.90
23069;DHT22;11702;50.856;4.348;2022-11-20T00:54:33;3.40;99.90
23069;DHT22;11702;50.856;4.348;2022-11-20T00:56:59;3.40;99.90
23069;DHT22;11702;50.856;4.348;2022-11-20T00:59:24;3.50;99.90
23069;DHT22;11702;50.856;4.348;2022-11-20T01:01:50;3.50;99.90
23069;DHT22;11702;50.856;4.348;2022-11-20T01:04:16;3.60;99.90
23069;DHT22;11702;50.856;4.348;2022-11-20T01:06:41;3.50;99.90
23069;DHT22;11702;50.856;4.348;2022-11-20T01:09:12;3.40;99.90
23069;DHT22;11702;50.856;4.348;2022-11-20T01:11:41;3.40;99.90
23069;DHT22;11702;50.856;4.348;2022-11-20T01:14:10;3.50;99.90
23069;DHT22;11702;50.856;4.348;2022-11-20T01:16:39;3.50;99.90
23069;DHT22;11702;50.856;4.348;2022-11-20T01:19:07;3.60;99.90
23069;DHT22;11702;50.856;4.348;2022-11-20T01:21:37;3.70;99.90
23069;DHT22;11702;50.856;4.348;2022-11-20T01:24:04;3.60;99.90
23069;DHT22;11702;50.856;4.348;2022-11-20T01:26:33;3.50;99.90
23069;DHT22;11702;50.856;4.348;2022-11-20T01:28:59;3.50;99.90
23069;DHT22;11702;50.856;4.348;2022-11-20T01:31:28;3.60;99.90
23069;DHT22;11702;50.856;4.348;2022-11-20T01:33:56;3.60;99.90
23069;DHT22;11702;50.856;4.348;2022-11-20T01:36:24;3.60;99.90
23069;DHT22;11702;50.856;4.348;2022-11-20T01:38:55;3.80;99.90
23069;DHT22;11702;50.856;4.348;2022-11-20T01:41:22;3.80;99.90
23069;DHT22;11702;50.856;4.348;2022-11-20T01:44:07;3.90;99.90
23069;DHT22;11702;50.856;4.348;2022-11-20T01:46:37;3.90;99.90
23069;DHT22;11702;50.856;4.348;2022-11-20T01:51:39;4.10;99.90
23069;DHT22;11702;50.856;4.348;2022-11-20T01:54:13;4.10;99.90
23069;DHT22;11702;50.856;4.348;2022-11-20T01:56:43;4.20;99.90
23069;DHT22;11702;50.856;4.348;2022-11-20T01:59:10;4.20;99.90
23069;DHT22;11702;50.856;4.348;2022-11-20T02:01:37;4.20;99.90
23069;DHT22;11702;50.856;4.348;2022-11-20T02:04:05;4.30;99.90
23069;DHT22;11702;50.856;4.348;2022-11-20T02:06:46;4.40;99.90
23069;DHT22;11702;50.856;4.348;2022-11-20T02:09:14;4.60;99.90
23069;DHT22;11702;50.856;4.348;2022-11-20T02:11:40;4.50;99.90
23069;DHT22;11702;50.856;4.348;2022-11-20T02:14:06;4.40;99.90
23069;DHT22;11702;50.856;4.348;2022-11-20T02:16:35;4.30;99.90
23069;DHT22;11702;50.856;4.348;2022-11-20T02:19:04;4.40;99.90
23069;DHT22;11702;50.856;4.348;2022-11-20T02:21:43;4.40;99.90
23069;DHT22;11702;50.856;4.348;2022-11-20T02:24:15;4.30;99.90
23069;DHT22;11702;50.856;4.348;2022-11-20T02:27:03;4.20;99.90
23069;DHT22;11702;50.856;4.348;2022-11-20T02:29:42;4.30;99.90
23069;DHT22;11702;50.856;4.348;2022-11-20T02:32:27;4.20;99.90
23069;DHT22;11702;50.856;4.348;2022-11-20T02:34:53;4.10;99.90
23069;DHT22;11702;50.856;4.348;2022-11-20T02:37:19;4.10;99.90
23069;DHT22;11702;50.856;4.348;2022-11-20T02:39:48;4.10;99.90
23069;DHT22;11702;50.856;4.348;2022-11-20T02:42:14;4.20;99.90
23069;DHT22;11702;50.856;4.348;2022-11-20T02:44:40;4.20;99.90
23069;DHT22;11702;50.856;4.348;2022-11-20T02:47:05;4.20;99.90
23069;DHT22;11702;50.856;4.348;2022-11-20T02:49:31;4.10;99.90
23069;DHT22;11702;50.856;4.348;2022-11-20T02:51:57;4.20;99.90
23069;DHT22;11702;50.856;4.348;2022-11-20T02:54:23;4.10;99.90
23069;DHT22;11702;50.856;4.348;2022-11-20T02:56:49;4.10;99.90
23069;DHT22;11702;50.856;4.348;2022-11-20T02:59:14;4.10;99.90
23069;DHT22;11702;50.856;4.348;2022-11-20T03:01:40;4.10;99.90
23069;DHT22;11702;50.856;4.348;2022-11-20T03:04:05;4.00;99.90
23069;DHT22;11702;50.856;4.348;2022-11-20T03:06:32;3.90;99.90
23069;DHT22;11702;50.856;4.348;2022-11-20T03:08:57;4.00;99.90
23069;DHT22;11702;50.856;4.348;2022-11-20T03:11:23;4.00;99.90
23069;DHT22;11702;50.856;4.348;2022-11-20T03:13:49;3.90;99.90
23069;DHT22;11702;50.856;4.348;2022-11-20T03:16:17;4.00;99.90
23069;DHT22;11702;50.856;4.348;2022-11-20T03:18:43;4.20;99.90
23069;DHT22;11702;50.856;4.348;2022-11-20T03:21:10;4.30;99.90
23069;DHT22;11702;50.856;4.348;2022-11-20T03:23:37;4.20;99.90
23069;DHT22;11702;50.856;4.348;2022-11-20T03:26:21;4.20;99.90
23069;DHT22;11702;50.856;4.348;2022-11-20T03:28:55;4.20;99.90
23069;DHT22;11702;50.856;4.348;2022-11-20T03:31:23;4.30;99.90
23069;DHT22;11702;50.856;4.348;2022-11-20T03:33:49;4.40;99.90
23069;DHT22;11702;50.856;4.348;2022-11-20T03:36:17;4.40;99.90
23069;DHT22;11702;50.856;4.348;2022-11-20T03:38:43;4.50;99.90
23069;DHT22;11702;50.856;4.348;2022-11-20T03:41:11;4.40;99.90
23069;DHT22;11702;50.856;4.348;2022-11-20T03:43:37;4.40;99.90
23069;DHT22;11702;50.856;4.348;2022-11-20T03:46:04;4.40;99.90
23069;DHT22;11702;50.856;4.348;2022-11-20T03:48:29;4.40;99.90
23069;DHT22;11702;50.856;4.348;2022-11-20T03:51:16;4.40;99.90
23069;DHT22;11702;50.856;4.348;2022-11-20T03:53:43;4.60;99.90
23069;DHT22;11702;50.856;4.348;2022-11-20T03:56:10;4.70;99.90
23069;DHT22;11702;50.856;4.348;2022-11-20T03:58:37;4.70;99.90
23069;DHT22;11702;50.856;4.348;2022-11-20T04:01:12;4.70;99.90
23069;DHT22;11702;50.856;4.348;2022-11-20T04:03:39;4.80;99.90
23069;DHT22;11702;50.856;4.348;2022-11-20T04:06:33;4.90;99.90
23069;DHT22;11702;50.856;4.348;2022-11-20T04:08:56;4.90;99.90
23069;DHT22;11702;50.856;4.348;2022-11-20T04:11:24;5.00;99.90
23069;DHT22;11702;50.856;4.348;2022-11-20T04:13:53;5.00;99.90
23069;DHT22;11702;50.856;4.348;2022-11-20T04:16:19;5.20;99.90
23069;DHT22;11702;50.856;4.348;2022-11-20T04:18:45;5.20;99.90
23069;DHT22;11702;50.856;4.348;2022-11-20T04:21:11;5.30;99.90
23069;DHT22;11702;50.856;4.348;2022-11-20T04:23:38;5.20;99.90
23069;DHT22;11702;50.856;4.348;2022-11-20T04:26:09;5.30;99.90
23069;DHT22;11702;50.856;4.348;2022-11-20T04:28:35;5.40;99.90
23069;DHT22;11702;50.856;4.348;2022-11-20T04:31:09;5.40;99.90
23069;DHT22;11702;50.856;4.348;2022-11-20T04:33:36;5.40;99.90
23069;DHT22;11702;50.856;4.348;2022-11-20T04:36:25;5.40;99.90
23069;DHT22;11702;50.856;4.348;2022-11-20T04:39:00;5.50;99.90
23069;DHT22;11702;50.856;4.348;2022-11-20T04:41:29;5.40;99.90
23069;DHT22;11702;50.856;4.348;2022-11-20T04:43:58;5.40;99.90
23069;DHT22;11702;50.856;4.348;2022-11-20T04:46:30;5.50;99.90
23069;DHT22;11702;50.856;4.348;2022-11-20T04:48:57;5.50;99.90
23069;DHT22;11702;50.856;4.348;2022-11-20T04:51:22;5.20;99.90
23069;DHT22;11702;50.856;4.348;2022-11-20T04:53:48;5.10;99.90
23069;DHT22;11702;50.856;4.348;2022-11-20T04:56:14;5.10;99.90
23069;DHT22;11702;50.856;4.348;2022-11-20T04:58:40;5.10;99.90
23069;DHT22;11702;50.856;4.348;2022-11-20T05:01:08;5.10;99.90
23069;DHT22;11702;50.856;4.348;2022-11-20T05:03:34;5.20;99.90
23069;DHT22;11702;50.856;4.348;2022-11-20T05:06:01;5.30;99.90
23069;DHT22;11702;50.856;4.348;2022-11-20T05:08:27;5.40;99.90
23069;DHT22;11702;50.856;4.348;2022-11-20T05:10:53;5.50;99.90
23069;DHT22;11702;50.856;4.348;2022-11-20T05:13:19;5.60;99.90
23069;DHT22;11702;50.856;4.348;2022-11-20T05:15:44;5.70;99.90
23069;DHT22;11702;50.856;4.348;2022-11-20T05:18:10;5.70;99.90
23069;DHT22;11702;50.856;4.348;2022-11-20T05:20:35;5.70;99.90
23069;DHT22;11702;50.856;4.348;2022-11-20T05:23:02;5.70;99.90
23069;DHT22;11702;50.856;4.348;2022-11-20T05:25:27;5.80;99.90
23069;DHT22;11702;50.856;4.348;2022-11-20T05:27:53;5.80;99.90
23069;DHT22;11702;50.856;4.348;2022-11-20T05:30:19;5.90;99.90
23069;DHT22;11702;50.856;4.348;2022-11-20T05:32:44;5.90;99.90
23069;DHT22;11702;50.856;4.348;2022-11-20T05:35:10;6.00;99.90
23069;DHT22;11702;50.856;4.348;2022-11-20T05:37:36;5.90;99.90
23069;DHT22;11702;50.856;4.348;2022-11-20T05:40:02;5.90;99.90
23069;DHT22;11702;50.856;4.348;2022-11-20T05:42:30;5.90;99.90
23069;DHT22;11702;50.856;4.348;2022-11-20T05:45:01;6.00;99.90
23069;DHT22;11702;50.856;4.348;2022-11-20T05:47:27;6.00;99.90
23069;DHT22;11702;50.856;4.348;2022-11-20T05:49:53;5.90;99.90
23069;DHT22;11702;50.856;4.348;2022-11-20T05:52:20;5.80;99.90
23069;DHT22;11702;50.856;4.348;2022-11-20T05:54:45;5.70;99.90
23069;DHT22;11702;50.856;4.348;2022-11-20T05:57:11;5.60;99.90
23069;DHT22;11702;50.856;4.348;2022-11-20T05:59:36;5.50;99.90
23069;DHT22;11702;50.856;4.348;2022-11-20T06:02:02;5.50;99.90
23069;DHT22;11702;50.856;4.348;2022-11-20T06:04:28;5.50;99.90
23069;DHT22;11702;50.856;4.348;2022-11-20T06:06:53;5.50;99.90
23069;DHT22;11702;50.856;4.348;2022-11-20T06:09:19;5.40;99.90
23069;DHT22;11702;50.856;4.348;2022-11-20T06:11:45;5.40;99.90
23069;DHT22;11702;50.856;4.348;2022-11-20T06:14:10;5.40;99.90
23069;DHT22;11702;50.856;4.348;2022-11-20T06:16:36;5.40;99.90
23069;DHT22;11702;50.856;4.348;2022-11-20T06:19:01;5.30;99.90
23069;DHT22;11702;50.856;4.348;2022-11-20T06:21:27;5.30;99.90
23069;DHT22;11702;50.856;4.348;2022-11-20T06:23:53;5.40;99.90
23069;DHT22;11702;50.856;4.348;2022-11-20T06:26:24;5.30;99.90
23069;DHT22;11702;50.856;4.348;2022-11-20T06:28:51;5.50;99.90
23069;DHT22;11702;50.856;4.348;2022-11-20T06:31:19;5.40;99.90
23069;DHT22;11702;50.856;4.348;2022-11-20T06:33:45;5.40;99.90
23069;DHT22;11702;50.856;4.348;2022-11-20T06:36:13;5.50;99.90
23069;DHT22;11702;50.856;4.348;2022-11-20T06:38:39;5.50;99.90
23069;DHT22;11702;50.856;4.348;2022-11-20T06:41:05;5.70;99.90
23069;DHT22;11702;50.856;4.348;2022-11-20T06:43:31;5.70;99.90
23069;DHT22;11702;50.856;4.348;2022-11-20T06:45:58;5.70;99.90
23069;DHT22;11702;50.856;4.348;2022-11-20T06:48:25;5.80;99.90
23069;DHT22;11702;50.856;4.348;2022-11-20T06:50:51;5.90;99.90
23069;DHT22;11702;50.856;4.348;2022-11-20T06:53:17;5.90;99.90
23069;DHT22;11702;50.856;4.348;2022-11-20T06:55:46;5.80;99.90
23069;DHT22;11702;50.856;4.348;2022-11-20T06:58:14;5.90;99.90
23069;DHT22;11702;50.856;4.348;2022-11-20T07:00:40;6.10;99.90
23069;DHT22;11702;50.856;4.348;2022-11-20T07:03:06;6.10;99.90
23069;DHT22;11702;50.856;4.348;2022-11-20T07:05:32;6.00;99.90
23069;DHT22;11702;50.856;4.348;2022-11-20T07:07:58;6.00;99.90
23069;DHT22;11702;50.856;4.348;2022-11-20T07:10:25;6.00;99.90
23069;DHT22;11702;50.856;4.348;2022-11-20T07:12:51;5.90;99.90
23069;DHT22;11702;50.856;4.348;2022-11-20T07:15:18;5.90;99.90
23069;DHT22;11702;50.856;4.348;2022-11-20T07:17:44;5.90;99.90
23069;DHT22;11702;50.856;4.348;2022-11-20T07:20:10;5.80;99.90
23069;DHT22;11702;50.856;4.348;2022-11-20T07:22:36;5.90;99.90
23069;DHT22;11702;50.856;4.348;2022-11-20T07:25:01;6.00;99.90
23069;DHT22;11702;50.856;4.348;2022-11-20T07:27:27;6.10;99.90
23069;DHT22;11702;50.856;4.348;2022-11-20T07:29:53;6.00;99.90
23069;DHT22;11702;50.856;4.348;2022-11-20T07:32:19;6.20;99.90
23069;DHT22;11702;50.856;4.348;2022-11-20T07:34:44;6.20;99.90
23069;DHT22;11702;50.856;4.348;2022-11-20T07:37:10;6.30;99.90
23069;DHT22;11702;50.856;4.348;2022-11-20T07:39:36;6.30;99.90
23069;DHT22;11702;50.856;4.348;2022-11-20T07:42:03;6.30;99.90
23069;DHT22;11702;50.856;4.348;2022-11-20T07:44:28;6.40;99.90
23069;DHT22;11702;50.856;4.348;2022-11-20T07:46:54;6.50;99.90
23069;DHT22;11702;50.856;4.348;2022-11-20T07:49:19;6.60;99.90
23069;DHT22;11702;50.856;4.348;2022-11-20T07:51:45;6.50;99.90
23069;DHT22;11702;50.856;4.348;2022-11-20T07:54:11;6.50;99.90
23069;DHT22;11702;50.856;4.348;2022-11-20T07:56:36;6.60;99.90
23069;DHT22;11702;50.856;4.348;2022-11-20T07:59:03;6.50;99.90
23069;DHT22;11702;50.856;4.348;2022-11-20T08:01:28;6.50;99.90
23069;DHT22;11702;50.856;4.348;2022-11-20T08:03:54;6.50;99.90
23069;DHT22;11702;50.856;4.348;2022-11-20T08:06:19;6.50;99.90
23069;DHT22;11702;50.856;4.348;2022-11-20T08:08:45;6.60;99.90
23069;DHT22;11702;50.856;4.348;2022-11-20T08:11:11;6.70;99.90
23069;DHT22;11702;50.856;4.348;2022-11-20T08:13:55;6.80;99.90
23069;DHT22;11702;50.856;4.348;2022-11-20T08:16:43;6.80;99.90
23069;DHT22;11702;50.856;4.348;2022-11-20T08:19:09;6.80;99.90
23069;DHT22;11702;50.856;4.348;2022-11-20T08:21:34;6.90;99.90
23069;DHT22;11702;50.856;4.348;2022-11-20T08:24:00;6.80;99.90
23069;DHT22;11702;50.856;4.348;2022-11-20T08:26:26;7.00;99.90
23069;DHT22;11702;50.856;4.348;2022-11-20T08:28:56;6.90;99.90
23069;DHT22;11702;50.856;4.348;2022-11-20T08:31:25;7.00;99.90
23069;DHT22;11702;50.856;4.348;2022-11-20T08:33:52;7.00;99.90
23069;DHT22;11702;50.856;4.348;2022-11-20T08:36:18;7.20;99.90
23069;DHT22;11702;50.856;4.348;2022-11-20T08:38:47;7.40;99.90
23069;DHT22;11702;50.856;4.348;2022-11-20T08:41:13;7.40;99.90
23069;DHT22;11702;50.856;4.348;2022-11-20T08:44:05;7.40;99.90
23069;DHT22;11702;50.856;4.348;2022-11-20T08:46:38;7.40;99.90
23069;DHT22;11702;50.856;4.348;2022-11-20T08:49:06;7.30;99.90
23069;DHT22;11702;50.856;4.348;2022-11-20T08:51:32;7.30;99.90
23069;DHT22;11702;50.856;4.348;2022-11-20T08:53:58;7.40;99.90
23069;DHT22;11702;50.856;4.348;2022-11-20T08:56:23;7.50;99.90
23069;DHT22;11702;50.856;4.348;2022-11-20T08:58:50;7.60;99.90
23069;DHT22;11702;50.856;4.348;2022-11-20T09:01:18;7.60;99.90
23069;DHT22;11702;50.856;4.348;2022-11-20T09:03:44;7.60;99.90
23069;DHT22;11702;50.856;4.348;2022-11-20T09:06:09;7.70;99.90
23069;DHT22;11702;50.856;4.348;2022-11-20T09:08:35;7.80;99.90
23069;DHT22;11702;50.856;4.348;2022-11-20T09:11:02;7.70;99.90
23069;DHT22;11702;50.856;4.348;2022-11-20T09:13:28;7.80;99.90
23069;DHT22;11702;50.856;4.348;2022-11-20T09:15:59;7.90;99.90
23069;DHT22;11702;50.856;4.348;2022-11-20T09:18:26;7.90;99.90
23069;DHT22;11702;50.856;4.348;2022-11-20T09:20:56;8.00;99.90
23069;DHT22;11702;50.856;4.348;2022-11-20T09:23:22;8.20;99.90
23069;DHT22;11702;50.856;4.348;2022-11-20T09:25:48;8.20;99.90
23069;DHT22;11702;50.856;4.348;2022-11-20T09:28:14;8.20;99.90
23069;DHT22;11702;50.856;4.348;2022-11-20T09:30:39;8.30;99.90
23069;DHT22;11702;50.856;4.348;2022-11-20T09:33:06;8.40;99.90
23069;DHT22;11702;50.856;4.348;2022-11-20T09:35:32;8.50;99.90
23069;DHT22;11702;50.856;4.348;2022-11-20T09:37:58;8.50;99.90
23069;DHT22;11702;50.856;4.348;2022-11-20T09:40:28;8.50;99.90
23069;DHT22;11702;50.856;4.348;2022-11-20T09:46:02;8.50;99.90
23069;DHT22;11702;50.856;4.348;2022-11-20T09:49:01;8.60;99.90
23069;DHT22;11702;50.856;4.348;2022-11-20T09:51:46;8.80;99.90
23069;DHT22;11702;50.856;4.348;2022-11-20T09:54:21;8.80;99.90
23069;DHT22;11702;50.856;4.348;2022-11-20T09:56:55;8.90;99.90
23069;DHT22;11702;50.856;4.348;2022-11-20T10:02:12;9.00;99.90
23069;DHT22;11702;50.856;4.348;2022-11-20T10:04:44;9.10;99.90
23069;DHT22;11702;50.856;4.348;2022-11-20T10:07:24;9.40;99.90
23069;DHT22;11702;50.856;4.348;2022-11-20T10:09:55;9.30;99.90
23069;DHT22;11702;50.856;4.348;2022-11-20T10:27:23;9.60;99.90
23069;DHT22;11702;50.856;4.348;2022-11-20T10:30:12;9.60;99.90
23069;DHT22;11702;50.856;4.348;2022-11-20T10:33:03;9.80;99.90
23069;DHT22;11702;50.856;4.348;2022-11-20T10:35:38;10.00;99.90
23069;DHT22;11702;50.856;4.348;2022-11-20T10:38:20;10.00;99.90
23069;DHT22;11702;50.856;4.348;2022-11-20T10:40:51;10.00;99.90
23069;DHT22;11702;50.856;4.348;2022-11-20T10:43:28;10.30;99.90
23069;DHT22;11702;50.856;4.348;2022-11-20T10:46:01;10.30;99.90
23069;DHT22;11702;50.856;4.348;2022-11-20T10:48:31;10.20;99.90
23069;DHT22;11702;50.856;4.348;2022-11-20T10:51:09;10.20;99.90
23069;DHT22;11702;50.856;4.348;2022-11-20T10:53:47;10.30;99.90
23069;DHT22;11702;50.856;4.348;2022-11-20T10:56:39;10.40;99.90
23069;DHT22;11702;50.856;4.348;2022-11-20T11:01:57;10.70;99.90
23069;DHT22;11702;50.856;4.348;2022-11-20T11:04:33;10.70;99.90
23069;DHT22;11702;50.856;4.348;2022-11-20T11:07:14;10.50;99.90
23069;DHT22;11702;50.856;4.348;2022-11-20T11:09:46;10.50;99.90
23069;DHT22;11702;50.856;4.348;2022-11-20T11:12:12;10.70;99.90
23069;DHT22;11702;50.856;4.348;2022-11-20T11:14:57;10.90;99.90
23069;DHT22;11702;50.856;4.348;2022-11-20T11:17:26;10.70;99.90
23069;DHT22;11702;50.856;4.348;2022-11-20T11:22:29;10.70;99.90
23069;DHT22;11702;50.856;4.348;2022-11-20T11:24:55;10.50;99.90
23069;DHT22;11702;50.856;4.348;2022-11-20T11:27:21;10.60;99.90
23069;DHT22;11702;50.856;4.348;2022-11-20T11:29:47;10.60;99.90
23069;DHT22;11702;50.856;4.348;2022-11-20T11:32:19;10.80;99.90
23069;DHT22;11702;50.856;4.348;2022-11-20T11:34:59;10.70;99.90
23069;DHT22;11702;50.856;4.348;2022-11-20T11:37:28;10.70;99.90
23069;DHT22;11702;50.856;4.348;2022-11-20T11:39:57;10.70;99.90
23069;DHT22;11702;50.856;4.348;2022-11-20T11:42:23;10.80;99.90
23069;DHT22;11702;50.856;4.348;2022-11-20T11:44:49;10.60;99.90
23069;DHT22;11702;50.856;4.348;2022-11-20T11:47:31;10.50;99.90
23069;DHT22;11702;50.856;4.348;2022-11-20T11:53:17;10.30;99.90
23069;DHT22;11702;50.856;4.348;2022-11-20T11:56:04;10.20;99.90
23069;DHT22;11702;50.856;4.348;2022-11-20T11:58:46;10.30;99.90
23069;DHT22;11702;50.856;4.348;2022-11-20T12:01:24;10.10;99.90
23069;DHT22;11702;50.856;4.348;2022-11-20T12:06:25;9.50;99.90
23069;DHT22;11702;50.856;4.348;2022-11-20T12:09:08;9.30;99.90
23069;DHT22;11702;50.856;4.348;2022-11-20T12:14:21;9.00;99.90
23069;DHT22;11702;50.856;4.348;2022-11-20T12:16:52;8.90;99.90
23069;DHT22;11702;50.856;4.348;2022-11-20T12:19:19;8.80;99.90
23069;DHT22;11702;50.856;4.348;2022-11-20T12:21:51;8.70;99.90
23069;DHT22;11702;50.856;4.348;2022-11-20T12:25:08;8.60;99.90
23069;DHT22;11702;50.856;4.348;2022-11-20T12:29:57;8.50;99.90
23069;DHT22;11702;50.856;4.348;2022-11-20T12:32:58;8.40;99.90
23069;DHT22;11702;50.856;4.348;2022-11-20T12:41:36;8.50;99.90
23069;DHT22;11702;50.856;4.348;2022-11-20T12:44:39;8.40;99.90
23069;DHT22;11702;50.856;4.348;2022-11-20T12:55:28;8.50;99.90
23069;DHT22;11702;50.856;4.348;2022-11-20T13:01:29;8.50;99.90
23069;DHT22;11702;50.856;4.348;2022-11-20T13:06:44;8.60;99.90
23069;DHT22;11702;50.856;4.348;2022-11-20T13:09:13;8.60;99.90
23069;DHT22;11702;50.856;4.348;2022-11-20T13:14:12;8.50;99.90
23069;DHT22;11702;50.856;4.348;2022-11-20T13:16:52;8.60;99.90
23069;DHT22;11702;50.856;4.348;2022-11-20T13:19:19;8.50;99.90
23069;DHT22;11702;50.856;4.348;2022-11-20T13:21:47;8.50;99.90
23069;DHT22;11702;50.856;4.348;2022-11-20T13:27:02;8.50;99.90
23069;DHT22;11702;50.856;4.348;2022-11-20T13:29:28;8.50;99.90
23069;DHT22;11702;50.856;4.348;2022-11-20T13:32:05;8.40;99.90
23069;DHT22;11702;50.856;4.348;2022-11-20T13:34:32;8.40;99.90
23069;DHT22;11702;50.856;4.348;2022-11-20T13:36:59;8.40;99.90
23069;DHT22;11702;50.856;4.348;2022-11-20T13:39:34;8.40;99.90
23069;DHT22;11702;50.856;4.348;2022-11-20T13:42:01;8.40;99.90
23069;DHT22;11702;50.856;4.348;2022-11-20T13:44:34;8.50;99.90
23069;DHT22;11702;50.856;4.348;2022-11-20T13:47:00;8.50;99.90
23069;DHT22;11702;50.856;4.348;2022-11-20T13:49:39;8.40;99.90
23069;DHT22;11702;50.856;4.348;2022-11-20T13:57:42;8.50;99.90
23069;DHT22;11702;50.856;4.348;2022-11-20T14:00:16;8.40;99.90
23069;DHT22;11702;50.856;4.348;2022-11-20T14:02:43;8.40;99.90
23069;DHT22;11702;50.856;4.348;2022-11-20T14:05:36;8.40;99.90
23069;DHT22;11702;50.856;4.348;2022-11-20T14:08:06;8.40;99.90
23069;DHT22;11702;50.856;4.348;2022-11-20T14:10:32;8.50;99.90
23069;DHT22;11702;50.856;4.348;2022-11-20T14:12:58;8.40;99.90
23069;DHT22;11702;50.856;4.348;2022-11-20T14:15:35;8.40;99.90
23069;DHT22;11702;50.856;4.348;2022-11-20T14:18:12;8.40;99.90
23069;DHT22;11702;50.856;4.348;2022-11-20T14:20:38;8.30;99.90
23069;DHT22;11702;50.856;4.348;2022-11-20T14:23:04;8.20;99.90
23069;DHT22;11702;50.856;4.348;2022-11-20T14:25:33;8.20;99.90
23069;DHT22;11702;50.856;4.348;2022-11-20T14:28:00;8.20;99.90
23069;DHT22;11702;50.856;4.348;2022-11-20T14:33:03;8.20;99.90
23069;DHT22;11702;50.856;4.348;2022-11-20T14:35:34;8.30;99.90
23069;DHT22;11702;50.856;4.348;2022-11-20T14:38:01;8.20;99.90
23069;DHT22;11702;50.856;4.348;2022-11-20T14:40:30;8.30;99.90
23069;DHT22;11702;50.856;4.348;2022-11-20T14:42:56;8.30;99.90
23069;DHT22;11702;50.856;4.348;2022-11-20T14:45:23;8.30;99.90
23069;DHT22;11702;50.856;4.348;2022-11-20T14:47:51;8.30;99.90
23069;DHT22;11702;50.856;4.348;2022-11-20T14:50:23;8.30;99.90
23069;DHT22;11702;50.856;4.348;2022-11-20T14:52:53;8.30;99.90
23069;DHT22;11702;50.856;4.348;2022-11-20T14:55:36;8.40;99.90
23069;DHT22;11702;50.856;4.348;2022-11-20T14:58:20;8.50;99.90
23069;DHT22;11702;50.856;4.348;2022-11-20T15:03:20;8.60;99.90
23069;DHT22;11702;50.856;4.348;2022-11-20T15:05:48;8.60;99.90
23069;DHT22;11702;50.856;4.348;2022-11-20T15:08:16;8.60;99.90
23069;DHT22;11702;50.856;4.348;2022-11-20T15:10:50;8.70;99.90
23069;DHT22;11702;50.856;4.348;2022-11-20T15:13:24;8.70;99.90
23069;DHT22;11702;50.856;4.348;2022-11-20T15:15:53;8.80;99.90
23069;DHT22;11702;50.856;4.348;2022-11-20T15:20:50;8.90;99.90
23069;DHT22;11702;50.856;4.348;2022-11-20T15:23:18;8.90;99.90
23069;DHT22;11702;50.856;4.348;2022-11-20T15:25:44;8.90;99.90
23069;DHT22;11702;50.856;4.348;2022-11-20T15:28:20;8.60;99.90
23069;DHT22;11702;50.856;4.348;2022-11-20T15:30:47;8.70;99.90
23069;DHT22;11702;50.856;4.348;2022-11-20T15:33:14;8.70;99.90
23069;DHT22;11702;50.856;4.348;2022-11-20T15:35:39;8.70;99.90
23069;DHT22;11702;50.856;4.348;2022-11-20T15:38:05;8.70;99.90
23069;DHT22;11702;50.856;4.348;2022-11-20T15:40:31;8.70;99.90
23069;DHT22;11702;50.856;4.348;2022-11-20T15:42:57;8.70;99.90
23069;DHT22;11702;50.856;4.348;2022-11-20T15:45:40;8.80;99.90
23069;DHT22;11702;50.856;4.348;2022-11-20T15:51:26;8.80;99.90
23069;DHT22;11702;50.856;4.348;2022-11-20T15:53:52;8.80;99.90
23069;DHT22;11702;50.856;4.348;2022-11-20T15:56:18;8.80;99.90
23069;DHT22;11702;50.856;4.348;2022-11-20T15:58:43;8.80;99.90
23069;DHT22;11702;50.856;4.348;2022-11-20T16:01:14;8.80;99.90
23069;DHT22;11702;50.856;4.348;2022-11-20T16:03:40;8.80;99.90
23069;DHT22;11702;50.856;4.348;2022-11-20T16:06:06;8.70;99.90
23069;DHT22;11702;50.856;4.348;2022-11-20T16:08:32;8.80;99.90
23069;DHT22;11702;50.856;4.348;2022-11-20T16:10:58;8.80;99.90
23069;DHT22;11702;50.856;4.348;2022-11-20T16:13:23;8.90;99.90
23069;DHT22;11702;50.856;4.348;2022-11-20T16:16:17;8.80;99.90
23069;DHT22;11702;50.856;4.348;2022-11-20T16:18:44;8.70;99.90
23069;DHT22;11702;50.856;4.348;2022-11-20T16:21:13;8.70;99.90
23069;DHT22;11702;50.856;4.348;2022-11-20T16:23:39;8.50;99.90
23069;DHT22;11702;50.856;4.348;2022-11-20T16:26:12;8.50;99.90
23069;DHT22;11702;50.856;4.348;2022-11-20T16:28:38;8.40;99.90
23069;DHT22;11702;50.856;4.348;2022-11-20T16:31:12;8.30;99.90
23069;DHT22;11702;50.856;4.348;2022-11-20T16:33:40;8.20;99.90
23069;DHT22;11702;50.856;4.348;2022-11-20T16:36:14;8.10;99.90
23069;DHT22;11702;50.856;4.348;2022-11-20T16:38:41;8.10;99.90
23069;DHT22;11702;50.856;4.348;2022-11-20T16:41:08;8.00;99.90
23069;DHT22;11702;50.856;4.348;2022-11-20T16:43:47;8.10;99.90
23069;DHT22;11702;50.856;4.348;2022-11-20T16:46:21;8.10;99.90
23069;DHT22;11702;50.856;4.348;2022-11-20T16:48:58;8.20;99.90
23069;DHT22;11702;50.856;4.348;2022-11-20T16:51:25;8.20;99.90
23069;DHT22;11702;50.856;4.348;2022-11-20T16:53:51;8.20;99.90
23069;DHT22;11702;50.856;4.348;2022-11-20T16:56:19;8.30;99.90
23069;DHT22;11702;50.856;4.348;2022-11-20T16:58:47;8.20;99.90
23069;DHT22;11702;50.856;4.348;2022-11-20T17:01:15;8.20;99.90
23069;DHT22;11702;50.856;4.348;2022-11-20T17:03:43;8.20;99.90
23069;DHT22;11702;50.856;4.348;2022-11-20T17:06:13;8.30;99.90
23069;DHT22;11702;50.856;4.348;2022-11-20T17:08:38;8.30;99.90
23069;DHT22;11702;50.856;4.348;2022-11-20T17:11:09;8.50;99.90
23069;DHT22;11702;50.856;4.348;2022-11-20T17:13:35;8.50;99.90
23069;DHT22;11702;50.856;4.348;2022-11-20T17:16:03;8.50;99.90
23069;DHT22;11702;50.856;4.348;2022-11-20T17:18:29;8.50;99.90
23069;DHT22;11702;50.856;4.348;2022-11-20T17:20:55;8.60;99.90
23069;DHT22;11702;50.856;4.348;2022-11-20T17:23:21;8.60;99.90